sensor_id;sensor_type;location;lat;lon;timestamp;P1;durP1;ratioP1;P2;durP2;ratioP2
10031;SDS011;5056;44.272;19.892;2023-10-09T00:00:11;5.00;;;3.00;;
10031;SDS011;5056;44.272;19.892;2023-10-09T00:02:57;3.10;;;2.83;;
10031;SDS011;5056;44.272;19.892;2023-10-09T00:05:26;2.95;;;2.72;;
10031;SDS011;5056;44.272;19.892;2023-10-09T00:08:05;3.55;;;2.95;;
10031;SDS011;5056;44.272;19.892;2023-10-09T00:10:34;4.47;;;2.80;;
10031;SDS011;5056;44.272;19.892;2023-10-09T00:13:12;2.33;;;2.10;;
10031;SDS011;5056;44.272;19.892;2023-10-09T00:15:39;3.72;;;1.90;;
10031;SDS011;5056;44.272;19.892;2023-10-09T00:18:07;2.55;;;2.03;;
10031;SDS011;5056;44.272;19.892;2023-10-09T00:20:37;2.13;;;1.88;;
10031;SDS011;5056;44.272;19.892;2023-10-09T00:23:08;2.53;;;1.83;;
10031;SDS011;5056;44.272;19.892;2023-10-09T00:25:42;3.60;;;2.05;;
10031;SDS011;5056;44.272;19.892;2023-10-09T00:28:35;1.67;;;1.58;;
10031;SDS011;5056;44.272;19.892;2023-10-09T00:31:06;2.10;;;1.90;;
10031;SDS011;5056;44.272;19.892;2023-10-09T00:33:40;1.63;;;1.52;;
10031;SDS011;5056;44.272;19.892;2023-10-09T00:36:08;1.67;;;1.58;;
10031;SDS011;5056;44.272;19.892;2023-10-09T00:38:36;1.80;;;1.70;;
10031;SDS011;5056;44.272;19.892;2023-10-09T00:41:09;2.30;;;1.98;;
10031;SDS011;5056;44.272;19.892;2023-10-09T00:43:46;2.25;;;1.73;;
10031;SDS011;5056;44.272;19.892;2023-10-09T00:46:15;3.33;;;2.13;;
10031;SDS011;5056;44.272;19.892;2023-10-09T00:48:50;2.15;;;2.03;;
10031;SDS011;5056;44.272;19.892;2023-10-09T00:51:19;2.03;;;1.58;;
10031;SDS011;5056;44.272;19.892;2023-10-09T00:53:51;5.10;;;1.90;;
10031;SDS011;5056;44.272;19.892;2023-10-09T00:56:21;1.80;;;1.70;;
10031;SDS011;5056;44.272;19.892;2023-10-09T00:59:05;2.08;;;1.75;;
10031;SDS011;5056;44.272;19.892;2023-10-09T01:01:40;4.03;;;1.83;;
10031;SDS011;5056;44.272;19.892;2023-10-09T01:04:21;1.95;;;1.85;;
10031;SDS011;5056;44.272;19.892;2023-10-09T01:09:51;1.90;;;1.70;;
10031;SDS011;5056;44.272;19.892;2023-10-09T01:15:22;2.67;;;2.15;;
10031;SDS011;5056;44.272;19.892;2023-10-09T01:21:12;4.28;;;2.42;;
10031;SDS011;5056;44.272;19.892;2023-10-09T01:23:42;2.63;;;2.22;;
10031;SDS011;5056;44.272;19.892;2023-10-09T01:26:28;3.63;;;3.05;;
10031;SDS011;5056;44.272;19.892;2023-10-09T01:28:58;3.50;;;2.70;;
10031;SDS011;5056;44.272;19.892;2023-10-09T01:31:25;2.40;;;2.20;;
10031;SDS011;5056;44.272;19.892;2023-10-09T01:33:59;3.75;;;2.80;;
10031;SDS011;5056;44.272;19.892;2023-10-09T01:36:29;3.13;;;2.83;;
10031;SDS011;5056;44.272;19.892;2023-10-09T01:39:00;6.30;;;3.17;;
10031;SDS011;5056;44.272;19.892;2023-10-09T01:41:32;6.20;;;4.47;;
10031;SDS011;5056;44.272;19.892;2023-10-09T01:44:00;5.07;;;4.13;;
10031;SDS011;5056;44.272;19.892;2023-10-09T01:46:28;3.90;;;3.40;;
10031;SDS011;5056;44.272;19.892;2023-10-09T01:48:58;2.77;;;2.17;;
10031;SDS011;5056;44.272;19.892;2023-10-09T01:51:33;3.03;;;2.40;;
10031;SDS011;5056;44.272;19.892;2023-10-09T01:54:03;2.17;;;1.97;;
10031;SDS011;5056;44.272;19.892;2023-10-09T01:56:30;4.95;;;2.00;;
10031;SDS011;5056;44.272;19.892;2023-10-09T01:59:02;5.87;;;2.50;;
10031;SDS011;5056;44.272;19.892;2023-10-09T02:01:34;2.60;;;2.20;;
10031;SDS011;5056;44.272;19.892;2023-10-09T02:04:06;2.37;;;1.87;;
10031;SDS011;5056;44.272;19.892;2023-10-09T02:06:39;3.43;;;2.00;;
10031;SDS011;5056;44.272;19.892;2023-10-09T02:09:11;3.63;;;2.00;;
10031;SDS011;5056;44.272;19.892;2023-10-09T02:11:51;2.23;;;2.03;;
10031;SDS011;5056;44.272;19.892;2023-10-09T02:14:21;4.00;;;2.03;;
10031;SDS011;5056;44.272;19.892;2023-10-09T02:16:49;2.40;;;2.07;;
10031;SDS011;5056;44.272;19.892;2023-10-09T02:19:43;4.40;;;2.07;;
10031;SDS011;5056;44.272;19.892;2023-10-09T02:24:53;4.07;;;2.20;;
10031;SDS011;5056;44.272;19.892;2023-10-09T02:27:34;3.10;;;1.90;;
10031;SDS011;5056;44.272;19.892;2023-10-09T02:30:27;2.50;;;2.30;;
10031;SDS011;5056;44.272;19.892;2023-10-09T02:33:00;2.20;;;1.90;;
10031;SDS011;5056;44.272;19.892;2023-10-09T02:35:34;3.07;;;2.10;;
10031;SDS011;5056;44.272;19.892;2023-10-09T02:38:11;2.87;;;2.23;;
10031;SDS011;5056;44.272;19.892;2023-10-09T02:40:44;2.87;;;2.10;;
10031;SDS011;5056;44.272;19.892;2023-10-09T02:43:25;2.57;;;2.10;;
10031;SDS011;5056;44.272;19.892;2023-10-09T02:45:54;3.70;;;1.87;;
10031;SDS011;5056;44.272;19.892;2023-10-09T02:48:22;6.33;;;2.47;;
10031;SDS011;5056;44.272;19.892;2023-10-09T02:50:52;2.27;;;1.90;;
10031;SDS011;5056;44.272;19.892;2023-10-09T02:53:22;3.57;;;2.07;;
10031;SDS011;5056;44.272;19.892;2023-10-09T02:55:56;1.97;;;1.87;;
10031;SDS011;5056;44.272;19.892;2023-10-09T02:58:37;2.93;;;1.87;;
10031;SDS011;5056;44.272;19.892;2023-10-09T03:01:08;1.83;;;1.73;;
10031;SDS011;5056;44.272;19.892;2023-10-09T03:03:36;3.37;;;1.60;;
10031;SDS011;5056;44.272;19.892;2023-10-09T03:06:04;2.03;;;1.87;;
10031;SDS011;5056;44.272;19.892;2023-10-09T03:08:36;4.17;;;2.10;;
10031;SDS011;5056;44.272;19.892;2023-10-09T03:11:05;2.40;;;1.90;;
10031;SDS011;5056;44.272;19.892;2023-10-09T03:16:53;3.63;;;1.90;;
10031;SDS011;5056;44.272;19.892;2023-10-09T03:19:22;2.77;;;2.30;;
10031;SDS011;5056;44.272;19.892;2023-10-09T03:22:02;8.77;;;3.20;;
10031;SDS011;5056;44.272;19.892;2023-10-09T03:24:29;4.80;;;3.20;;
10031;SDS011;5056;44.272;19.892;2023-10-09T03:26:58;4.83;;;2.67;;
10031;SDS011;5056;44.272;19.892;2023-10-09T03:29:40;3.60;;;2.30;;
10031;SDS011;5056;44.272;19.892;2023-10-09T03:32:14;2.70;;;2.20;;
10031;SDS011;5056;44.272;19.892;2023-10-09T03:34:41;2.50;;;2.13;;
10031;SDS011;5056;44.272;19.892;2023-10-09T03:37:11;3.80;;;2.50;;
10031;SDS011;5056;44.272;19.892;2023-10-09T03:39:47;5.03;;;2.90;;
10031;SDS011;5056;44.272;19.892;2023-10-09T03:42:18;3.93;;;2.30;;
10031;SDS011;5056;44.272;19.892;2023-10-09T03:44:47;2.20;;;2.00;;
10031;SDS011;5056;44.272;19.892;2023-10-09T03:47:18;2.20;;;2.07;;
10031;SDS011;5056;44.272;19.892;2023-10-09T03:49:47;2.03;;;1.93;;
10031;SDS011;5056;44.272;19.892;2023-10-09T03:52:16;2.10;;;1.90;;
10031;SDS011;5056;44.272;19.892;2023-10-09T03:54:46;3.67;;;2.17;;
10031;SDS011;5056;44.272;19.892;2023-10-09T03:57:14;2.77;;;2.30;;
10031;SDS011;5056;44.272;19.892;2023-10-09T04:00:03;2.33;;;2.13;;
10031;SDS011;5056;44.272;19.892;2023-10-09T04:02:51;2.50;;;2.30;;
10031;SDS011;5056;44.272;19.892;2023-10-09T04:05:18;3.93;;;2.27;;
10031;SDS011;5056;44.272;19.892;2023-10-09T04:08:01;2.53;;;2.30;;
10031;SDS011;5056;44.272;19.892;2023-10-09T04:10:39;3.23;;;2.03;;
10031;SDS011;5056;44.272;19.892;2023-10-09T04:13:26;3.27;;;2.90;;
10031;SDS011;5056;44.272;19.892;2023-10-09T04:16:01;3.57;;;2.70;;
10031;SDS011;5056;44.272;19.892;2023-10-09T04:18:50;2.90;;;2.70;;
10031;SDS011;5056;44.272;19.892;2023-10-09T04:21:17;4.40;;;4.00;;
10031;SDS011;5056;44.272;19.892;2023-10-09T04:23:59;6.93;;;5.03;;
10031;SDS011;5056;44.272;19.892;2023-10-09T04:26:35;7.53;;;5.23;;
10031;SDS011;5056;44.272;19.892;2023-10-09T04:29:05;3.80;;;3.50;;
10031;SDS011;5056;44.272;19.892;2023-10-09T04:31:38;5.07;;;3.00;;
10031;SDS011;5056;44.272;19.892;2023-10-09T04:34:08;4.30;;;2.93;;
10031;SDS011;5056;44.272;19.892;2023-10-09T04:36:55;3.83;;;3.20;;
10031;SDS011;5056;44.272;19.892;2023-10-09T04:39:45;5.33;;;4.93;;
10031;SDS011;5056;44.272;19.892;2023-10-09T04:42:12;10.07;;;4.93;;
10031;SDS011;5056;44.272;19.892;2023-10-09T04:44:52;7.07;;;4.87;;
10031;SDS011;5056;44.272;19.892;2023-10-09T04:47:27;6.67;;;4.23;;
10031;SDS011;5056;44.272;19.892;2023-10-09T04:52:35;5.37;;;4.63;;
10031;SDS011;5056;44.272;19.892;2023-10-09T04:55:17;12.03;;;8.90;;
10031;SDS011;5056;44.272;19.892;2023-10-09T04:57:45;12.77;;;10.67;;
10031;SDS011;5056;44.272;19.892;2023-10-09T05:00:26;7.30;;;6.17;;
10031;SDS011;5056;44.272;19.892;2023-10-09T05:03:13;8.37;;;5.03;;
10031;SDS011;5056;44.272;19.892;2023-10-09T05:05:54;7.13;;;4.40;;
10031;SDS011;5056;44.272;19.892;2023-10-09T05:08:45;5.67;;;4.07;;
10031;SDS011;5056;44.272;19.892;2023-10-09T05:11:13;7.00;;;4.47;;
10031;SDS011;5056;44.272;19.892;2023-10-09T05:13:59;5.90;;;3.80;;
10031;SDS011;5056;44.272;19.892;2023-10-09T05:16:38;6.00;;;3.63;;
10031;SDS011;5056;44.272;19.892;2023-10-09T05:19:21;9.03;;;5.37;;
10031;SDS011;5056;44.272;19.892;2023-10-09T05:22:25;7.00;;;6.00;;
10031;SDS011;5056;44.272;19.892;2023-10-09T05:25:04;9.67;;;7.10;;
10031;SDS011;5056;44.272;19.892;2023-10-09T05:27:55;8.57;;;7.50;;
10031;SDS011;5056;44.272;19.892;2023-10-09T05:30:42;9.17;;;7.10;;
10031;SDS011;5056;44.272;19.892;2023-10-09T05:33:20;8.97;;;7.77;;
10031;SDS011;5056;44.272;19.892;2023-10-09T05:36:04;11.60;;;8.30;;
10031;SDS011;5056;44.272;19.892;2023-10-09T05:38:42;11.50;;;7.37;;
10031;SDS011;5056;44.272;19.892;2023-10-09T05:41:24;7.80;;;6.97;;
10031;SDS011;5056;44.272;19.892;2023-10-09T05:44:04;7.80;;;7.00;;
10031;SDS011;5056;44.272;19.892;2023-10-09T05:46:52;6.20;;;5.47;;
10031;SDS011;5056;44.272;19.892;2023-10-09T05:49:47;6.30;;;5.70;;
10031;SDS011;5056;44.272;19.892;2023-10-09T05:52:46;6.73;;;5.93;;
10031;SDS011;5056;44.272;19.892;2023-10-09T05:55:30;5.97;;;5.40;;
10031;SDS011;5056;44.272;19.892;2023-10-09T06:01:16;8.30;;;5.83;;
10031;SDS011;5056;44.272;19.892;2023-10-09T06:04:01;7.87;;;5.30;;
10031;SDS011;5056;44.272;19.892;2023-10-09T06:06:40;9.87;;;5.10;;
10031;SDS011;5056;44.272;19.892;2023-10-09T06:09:16;7.57;;;4.73;;
10031;SDS011;5056;44.272;19.892;2023-10-09T06:12:08;5.00;;;4.40;;
10031;SDS011;5056;44.272;19.892;2023-10-09T06:15:14;4.97;;;2.92;;
10031;SDS011;5056;44.272;19.892;2023-10-09T06:18:15;6.65;;;3.67;;
10031;SDS011;5056;44.272;19.892;2023-10-09T06:24:07;5.40;;;4.25;;
10031;SDS011;5056;44.272;19.892;2023-10-09T06:26:44;7.32;;;4.05;;
10031;SDS011;5056;44.272;19.892;2023-10-09T06:29:23;4.80;;;4.10;;
10031;SDS011;5056;44.272;19.892;2023-10-09T06:32:04;7.25;;;4.15;;
10031;SDS011;5056;44.272;19.892;2023-10-09T06:34:59;6.43;;;3.83;;
10031;SDS011;5056;44.272;19.892;2023-10-09T06:37:41;9.45;;;4.45;;
10031;SDS011;5056;44.272;19.892;2023-10-09T06:40:31;9.27;;;5.55;;
10031;SDS011;5056;44.272;19.892;2023-10-09T06:43:17;10.55;;;4.95;;
10031;SDS011;5056;44.272;19.892;2023-10-09T06:45:52;6.72;;;4.53;;
10031;SDS011;5056;44.272;19.892;2023-10-09T06:48:23;4.25;;;3.85;;
10031;SDS011;5056;44.272;19.892;2023-10-09T06:51:10;9.07;;;4.18;;
10031;SDS011;5056;44.272;19.892;2023-10-09T06:53:48;5.55;;;3.60;;
10031;SDS011;5056;44.272;19.892;2023-10-09T06:56:31;6.45;;;3.78;;
10031;SDS011;5056;44.272;19.892;2023-10-09T06:59:14;3.75;;;3.45;;
10031;SDS011;5056;44.272;19.892;2023-10-09T07:01:46;3.88;;;3.47;;
10031;SDS011;5056;44.272;19.892;2023-10-09T07:04:16;3.50;;;3.30;;
10031;SDS011;5056;44.272;19.892;2023-10-09T07:07:07;4.35;;;3.75;;
10031;SDS011;5056;44.272;19.892;2023-10-09T07:09:38;4.35;;;3.35;;
10031;SDS011;5056;44.272;19.892;2023-10-09T07:12:08;3.50;;;3.08;;
10031;SDS011;5056;44.272;19.892;2023-10-09T07:14:41;5.88;;;4.00;;
10031;SDS011;5056;44.272;19.892;2023-10-09T07:17:21;4.43;;;4.00;;
10031;SDS011;5056;44.272;19.892;2023-10-09T07:19:52;10.10;;;4.18;;
10031;SDS011;5056;44.272;19.892;2023-10-09T07:22:36;8.63;;;4.60;;
10031;SDS011;5056;44.272;19.892;2023-10-09T07:25:18;17.00;;;8.15;;
10031;SDS011;5056;44.272;19.892;2023-10-09T07:28:06;13.77;;;9.90;;
10031;SDS011;5056;44.272;19.892;2023-10-09T07:30:45;16.02;;;12.27;;
10031;SDS011;5056;44.272;19.892;2023-10-09T07:33:12;27.55;;;16.83;;
10031;SDS011;5056;44.272;19.892;2023-10-09T07:35:56;47.72;;;29.95;;
10031;SDS011;5056;44.272;19.892;2023-10-09T07:38:24;42.88;;;28.65;;
10031;SDS011;5056;44.272;19.892;2023-10-09T07:40:54;27.42;;;15.73;;
10031;SDS011;5056;44.272;19.892;2023-10-09T07:43:26;24.13;;;15.70;;
10031;SDS011;5056;44.272;19.892;2023-10-09T07:46:03;22.42;;;12.77;;
10031;SDS011;5056;44.272;19.892;2023-10-09T07:48:49;20.70;;;12.55;;
10031;SDS011;5056;44.272;19.892;2023-10-09T07:51:18;25.63;;;13.55;;
10031;SDS011;5056;44.272;19.892;2023-10-09T07:53:49;34.08;;;16.20;;
10031;SDS011;5056;44.272;19.892;2023-10-09T07:56:22;30.88;;;19.38;;
10031;SDS011;5056;44.272;19.892;2023-10-09T07:58:55;30.17;;;18.52;;
10031;SDS011;5056;44.272;19.892;2023-10-09T08:01:28;22.70;;;15.80;;
10031;SDS011;5056;44.272;19.892;2023-10-09T08:04:01;32.92;;;17.73;;
10031;SDS011;5056;44.272;19.892;2023-10-09T08:06:31;20.75;;;15.45;;
10031;SDS011;5056;44.272;19.892;2023-10-09T08:09:08;25.10;;;17.77;;
10031;SDS011;5056;44.272;19.892;2023-10-09T08:12:04;32.47;;;19.05;;
10031;SDS011;5056;44.272;19.892;2023-10-09T08:15:00;26.50;;;16.50;;
10031;SDS011;5056;44.272;19.892;2023-10-09T08:17:43;28.85;;;17.23;;
10031;SDS011;5056;44.272;19.892;2023-10-09T08:20:16;35.75;;;14.35;;
10031;SDS011;5056;44.272;19.892;2023-10-09T08:22:42;16.40;;;10.80;;
10031;SDS011;5056;44.272;19.892;2023-10-09T08:25:15;15.80;;;10.40;;
10031;SDS011;5056;44.272;19.892;2023-10-09T08:27:57;17.27;;;8.48;;
10031;SDS011;5056;44.272;19.892;2023-10-09T08:30:40;15.13;;;8.48;;
10031;SDS011;5056;44.272;19.892;2023-10-09T08:33:16;9.75;;;6.80;;
10031;SDS011;5056;44.272;19.892;2023-10-09T08:36:06;10.73;;;7.22;;
10031;SDS011;5056;44.272;19.892;2023-10-09T08:38:34;9.23;;;7.30;;
10031;SDS011;5056;44.272;19.892;2023-10-09T08:41:08;11.45;;;8.02;;
10031;SDS011;5056;44.272;19.892;2023-10-09T08:46:23;9.55;;;7.05;;
10031;SDS011;5056;44.272;19.892;2023-10-09T08:48:53;13.90;;;8.90;;
10031;SDS011;5056;44.272;19.892;2023-10-09T08:51:21;16.85;;;9.43;;
10031;SDS011;5056;44.272;19.892;2023-10-09T08:53:48;12.55;;;8.13;;
10031;SDS011;5056;44.272;19.892;2023-10-09T08:56:17;16.92;;;8.93;;
10031;SDS011;5056;44.272;19.892;2023-10-09T08:58:57;17.88;;;10.63;;
10031;SDS011;5056;44.272;19.892;2023-10-09T09:01:30;23.85;;;12.63;;
10031;SDS011;5056;44.272;19.892;2023-10-09T09:04:05;26.30;;;11.05;;
10031;SDS011;5056;44.272;19.892;2023-10-09T09:06:36;15.50;;;6.65;;
10031;SDS011;5056;44.272;19.892;2023-10-09T09:09:09;10.15;;;6.00;;
10031;SDS011;5056;44.272;19.892;2023-10-09T09:11:40;11.48;;;6.00;;
10031;SDS011;5056;44.272;19.892;2023-10-09T09:14:14;17.00;;;6.90;;
10031;SDS011;5056;44.272;19.892;2023-10-09T09:16:45;9.70;;;5.68;;
10031;SDS011;5056;44.272;19.892;2023-10-09T09:19:17;6.05;;;3.80;;
10031;SDS011;5056;44.272;19.892;2023-10-09T09:21:56;4.82;;;3.80;;
10031;SDS011;5056;44.272;19.892;2023-10-09T09:24:24;13.55;;;6.75;;
10031;SDS011;5056;44.272;19.892;2023-10-09T09:27:03;13.13;;;6.40;;
10031;SDS011;5056;44.272;19.892;2023-10-09T09:29:40;41.80;;;10.55;;
10031;SDS011;5056;44.272;19.892;2023-10-09T09:32:25;13.15;;;8.10;;
10031;SDS011;5056;44.272;19.892;2023-10-09T09:35:11;82.85;;;12.93;;
10031;SDS011;5056;44.272;19.892;2023-10-09T09:37:44;9.60;;;6.00;;
10031;SDS011;5056;44.272;19.892;2023-10-09T09:40:20;8.25;;;4.85;;
10031;SDS011;5056;44.272;19.892;2023-10-09T09:43:02;10.40;;;5.18;;
10031;SDS011;5056;44.272;19.892;2023-10-09T09:45:33;7.40;;;4.50;;
10031;SDS011;5056;44.272;19.892;2023-10-09T09:48:03;8.98;;;3.78;;
10031;SDS011;5056;44.272;19.892;2023-10-09T09:53:08;6.65;;;5.25;;
10031;SDS011;5056;44.272;19.892;2023-10-09T09:55:42;9.90;;;5.05;;
10031;SDS011;5056;44.272;19.892;2023-10-09T10:01:09;8.40;;;4.55;;
10031;SDS011;5056;44.272;19.892;2023-10-09T10:03:44;10.90;;;5.45;;
10031;SDS011;5056;44.272;19.892;2023-10-09T10:06:13;6.03;;;4.57;;
10031;SDS011;5056;44.272;19.892;2023-10-09T10:08:44;29.92;;;6.90;;
10031;SDS011;5056;44.272;19.892;2023-10-09T10:14:13;5.60;;;3.60;;
10031;SDS011;5056;44.272;19.892;2023-10-09T10:17:00;4.15;;;3.33;;
10031;SDS011;5056;44.272;19.892;2023-10-09T10:22:50;3.60;;;3.30;;
10031;SDS011;5056;44.272;19.892;2023-10-09T10:25:32;4.05;;;3.35;;
10031;SDS011;5056;44.272;19.892;2023-10-09T10:30:53;3.45;;;3.15;;
10031;SDS011;5056;44.272;19.892;2023-10-09T10:33:21;3.38;;;3.08;;
10031;SDS011;5056;44.272;19.892;2023-10-09T10:35:49;7.22;;;4.00;;
10031;SDS011;5056;44.272;19.892;2023-10-09T10:38:32;4.90;;;3.08;;
10031;SDS011;5056;44.272;19.892;2023-10-09T10:41:12;4.32;;;3.50;;
10031;SDS011;5056;44.272;19.892;2023-10-09T10:43:43;6.22;;;3.50;;
10031;SDS011;5056;44.272;19.892;2023-10-09T10:46:13;3.00;;;2.80;;
10031;SDS011;5056;44.272;19.892;2023-10-09T10:48:49;4.55;;;3.10;;
10031;SDS011;5056;44.272;19.892;2023-10-09T10:51:24;6.00;;;3.63;;
10031;SDS011;5056;44.272;19.892;2023-10-09T10:54:02;4.75;;;3.55;;
10031;SDS011;5056;44.272;19.892;2023-10-09T10:56:43;3.67;;;3.38;;
10031;SDS011;5056;44.272;19.892;2023-10-09T10:59:14;3.92;;;3.22;;
10031;SDS011;5056;44.272;19.892;2023-10-09T11:01:48;5.55;;;2.88;;
10031;SDS011;5056;44.272;19.892;2023-10-09T11:04:39;3.25;;;3.03;;
10031;SDS011;5056;44.272;19.892;2023-10-09T11:07:07;9.20;;;2.90;;
10031;SDS011;5056;44.272;19.892;2023-10-09T11:09:46;7.53;;;3.60;;
10031;SDS011;5056;44.272;19.892;2023-10-09T11:12:43;5.78;;;3.47;;
10031;SDS011;5056;44.272;19.892;2023-10-09T11:15:32;5.22;;;3.35;;
10031;SDS011;5056;44.272;19.892;2023-10-09T11:18:09;3.63;;;3.25;;
10031;SDS011;5056;44.272;19.892;2023-10-09T11:20:45;4.03;;;3.40;;
10031;SDS011;5056;44.272;19.892;2023-10-09T11:23:22;2.90;;;2.50;;
10031;SDS011;5056;44.272;19.892;2023-10-09T11:29:05;6.15;;;3.22;;
10031;SDS011;5056;44.272;19.892;2023-10-09T11:31:41;3.45;;;3.17;;
10031;SDS011;5056;44.272;19.892;2023-10-09T11:34:19;3.90;;;3.38;;
10031;SDS011;5056;44.272;19.892;2023-10-09T11:36:54;4.38;;;3.75;;
10031;SDS011;5056;44.272;19.892;2023-10-09T11:39:26;4.88;;;3.28;;
10031;SDS011;5056;44.272;19.892;2023-10-09T11:44:34;6.35;;;3.50;;
10031;SDS011;5056;44.272;19.892;2023-10-09T11:47:04;6.93;;;4.18;;
10031;SDS011;5056;44.272;19.892;2023-10-09T11:49:48;4.75;;;4.35;;
10031;SDS011;5056;44.272;19.892;2023-10-09T11:52:21;50.20;;;9.52;;
10031;SDS011;5056;44.272;19.892;2023-10-09T11:55:03;6.97;;;6.38;;
10031;SDS011;5056;44.272;19.892;2023-10-09T11:57:34;5.63;;;5.05;;
10031;SDS011;5056;44.272;19.892;2023-10-09T12:00:01;7.30;;;5.90;;
10031;SDS011;5056;44.272;19.892;2023-10-09T12:02:49;8.68;;;4.57;;
10031;SDS011;5056;44.272;19.892;2023-10-09T12:05:35;4.82;;;4.32;;
10031;SDS011;5056;44.272;19.892;2023-10-09T12:08:03;4.35;;;4.05;;
10031;SDS011;5056;44.272;19.892;2023-10-09T12:10:33;4.45;;;4.05;;
10031;SDS011;5056;44.272;19.892;2023-10-09T12:13:08;6.68;;;4.05;;
10031;SDS011;5056;44.272;19.892;2023-10-09T12:15:35;4.13;;;3.70;;
10031;SDS011;5056;44.272;19.892;2023-10-09T12:18:06;5.15;;;4.22;;
10031;SDS011;5056;44.272;19.892;2023-10-09T12:20:40;3.97;;;3.65;;
10031;SDS011;5056;44.272;19.892;2023-10-09T12:23:07;8.38;;;3.92;;
10031;SDS011;5056;44.272;19.892;2023-10-09T12:25:40;8.68;;;4.20;;
10031;SDS011;5056;44.272;19.892;2023-10-09T12:31:15;6.50;;;4.53;;
10031;SDS011;5056;44.272;19.892;2023-10-09T12:33:45;5.85;;;4.15;;
10031;SDS011;5056;44.272;19.892;2023-10-09T12:36:14;4.53;;;4.10;;
10031;SDS011;5056;44.272;19.892;2023-10-09T12:38:44;6.13;;;4.53;;
10031;SDS011;5056;44.272;19.892;2023-10-09T12:41:17;15.73;;;5.00;;
10031;SDS011;5056;44.272;19.892;2023-10-09T12:43:51;5.00;;;4.00;;
10031;SDS011;5056;44.272;19.892;2023-10-09T12:46:18;7.35;;;4.35;;
10031;SDS011;5056;44.272;19.892;2023-10-09T12:48:48;5.75;;;4.00;;
10031;SDS011;5056;44.272;19.892;2023-10-09T12:51:15;29.20;;;7.03;;
10031;SDS011;5056;44.272;19.892;2023-10-09T12:53:42;109.70;;;12.07;;
10031;SDS011;5056;44.272;19.892;2023-10-09T12:56:09;11.77;;;4.85;;
10031;SDS011;5056;44.272;19.892;2023-10-09T12:58:37;31.67;;;7.15;;
10031;SDS011;5056;44.272;19.892;2023-10-09T13:01:06;69.45;;;10.85;;
10031;SDS011;5056;44.272;19.892;2023-10-09T13:03:38;11.10;;;4.90;;
10031;SDS011;5056;44.272;19.892;2023-10-09T13:06:12;14.13;;;5.35;;
10031;SDS011;5056;44.272;19.892;2023-10-09T13:08:40;10.32;;;4.10;;
10031;SDS011;5056;44.272;19.892;2023-10-09T13:11:08;9.70;;;4.10;;
10031;SDS011;5056;44.272;19.892;2023-10-09T13:13:37;11.68;;;4.68;;
10031;SDS011;5056;44.272;19.892;2023-10-09T13:16:09;19.55;;;5.28;;
10031;SDS011;5056;44.272;19.892;2023-10-09T13:18:39;13.75;;;4.78;;
10031;SDS011;5056;44.272;19.892;2023-10-09T13:21:15;4.10;;;3.70;;
10031;SDS011;5056;44.272;19.892;2023-10-09T13:23:43;4.35;;;3.78;;
10031;SDS011;5056;44.272;19.892;2023-10-09T13:26:16;11.77;;;6.00;;
10031;SDS011;5056;44.272;19.892;2023-10-09T13:28:49;28.30;;;7.20;;
10031;SDS011;5056;44.272;19.892;2023-10-09T13:31:20;18.58;;;6.55;;
10031;SDS011;5056;44.272;19.892;2023-10-09T13:33:50;12.73;;;5.32;;
10031;SDS011;5056;44.272;19.892;2023-10-09T13:36:21;9.50;;;5.30;;
10031;SDS011;5056;44.272;19.892;2023-10-09T13:38:56;6.38;;;4.38;;
10031;SDS011;5056;44.272;19.892;2023-10-09T13:41:27;4.38;;;4.05;;
10031;SDS011;5056;44.272;19.892;2023-10-09T13:43:54;5.72;;;4.93;;
10031;SDS011;5056;44.272;19.892;2023-10-09T13:46:23;5.13;;;4.70;;
10031;SDS011;5056;44.272;19.892;2023-10-09T13:48:50;5.80;;;4.85;;
10031;SDS011;5056;44.272;19.892;2023-10-09T13:51:18;11.35;;;5.05;;
10031;SDS011;5056;44.272;19.892;2023-10-09T13:53:49;10.07;;;5.00;;
10031;SDS011;5056;44.272;19.892;2023-10-09T13:56:17;5.88;;;4.75;;
10031;SDS011;5056;44.272;19.892;2023-10-09T13:58:46;5.50;;;4.57;;
10031;SDS011;5056;44.272;19.892;2023-10-09T14:01:14;4.38;;;3.97;;
10031;SDS011;5056;44.272;19.892;2023-10-09T14:03:54;6.78;;;4.20;;
10031;SDS011;5056;44.272;19.892;2023-10-09T14:06:21;4.30;;;3.35;;
10031;SDS011;5056;44.272;19.892;2023-10-09T14:08:56;5.95;;;4.47;;
10031;SDS011;5056;44.272;19.892;2023-10-09T14:11:34;5.00;;;4.55;;
10031;SDS011;5056;44.272;19.892;2023-10-09T14:14:03;7.28;;;4.43;;
10031;SDS011;5056;44.272;19.892;2023-10-09T14:16:35;4.38;;;3.72;;
10031;SDS011;5056;44.272;19.892;2023-10-09T14:19:03;6.90;;;5.35;;
10031;SDS011;5056;44.272;19.892;2023-10-09T14:21:33;6.85;;;6.22;;
10031;SDS011;5056;44.272;19.892;2023-10-09T14:24:03;7.43;;;5.00;;
10031;SDS011;5056;44.272;19.892;2023-10-09T14:26:40;12.65;;;6.68;;
10031;SDS011;5056;44.272;19.892;2023-10-09T14:29:10;11.15;;;5.57;;
10031;SDS011;5056;44.272;19.892;2023-10-09T14:31:41;26.33;;;6.55;;
10031;SDS011;5056;44.272;19.892;2023-10-09T14:34:26;19.42;;;6.78;;
10031;SDS011;5056;44.272;19.892;2023-10-09T14:37:03;13.98;;;6.00;;
10031;SDS011;5056;44.272;19.892;2023-10-09T14:39:31;15.50;;;13.80;;
10031;SDS011;5056;44.272;19.892;2023-10-09T14:42:02;20.52;;;14.68;;
10031;SDS011;5056;44.272;19.892;2023-10-09T14:44:34;23.13;;;14.32;;
10031;SDS011;5056;44.272;19.892;2023-10-09T14:47:02;29.08;;;14.82;;
10031;SDS011;5056;44.272;19.892;2023-10-09T14:52:11;12.43;;;8.40;;
10031;SDS011;5056;44.272;19.892;2023-10-09T14:54:41;11.95;;;8.00;;
10031;SDS011;5056;44.272;19.892;2023-10-09T14:57:09;52.92;;;12.43;;
10031;SDS011;5056;44.272;19.892;2023-10-09T14:59:37;11.88;;;6.35;;
10031;SDS011;5056;44.272;19.892;2023-10-09T15:02:04;12.65;;;6.45;;
10031;SDS011;5056;44.272;19.892;2023-10-09T15:04:32;15.05;;;6.57;;
10031;SDS011;5056;44.272;19.892;2023-10-09T15:07:03;14.55;;;7.72;;
10031;SDS011;5056;44.272;19.892;2023-10-09T15:09:32;10.00;;;6.18;;
10031;SDS011;5056;44.272;19.892;2023-10-09T15:12:01;6.03;;;5.43;;
10031;SDS011;5056;44.272;19.892;2023-10-09T15:14:31;8.32;;;6.70;;
10031;SDS011;5056;44.272;19.892;2023-10-09T15:16:58;9.35;;;7.10;;
10031;SDS011;5056;44.272;19.892;2023-10-09T15:19:26;7.85;;;6.90;;
10031;SDS011;5056;44.272;19.892;2023-10-09T15:21:58;8.75;;;6.32;;
10031;SDS011;5056;44.272;19.892;2023-10-09T15:24:27;14.98;;;7.60;;
10031;SDS011;5056;44.272;19.892;2023-10-09T15:29:38;12.07;;;7.75;;
10031;SDS011;5056;44.272;19.892;2023-10-09T15:32:09;12.55;;;7.57;;
10031;SDS011;5056;44.272;19.892;2023-10-09T15:34:40;21.30;;;11.00;;
10031;SDS011;5056;44.272;19.892;2023-10-09T15:37:09;23.85;;;12.35;;
10031;SDS011;5056;44.272;19.892;2023-10-09T15:39:42;24.00;;;13.00;;
10031;SDS011;5056;44.272;19.892;2023-10-09T15:42:09;20.13;;;11.88;;
10031;SDS011;5056;44.272;19.892;2023-10-09T15:44:38;15.98;;;10.23;;
10031;SDS011;5056;44.272;19.892;2023-10-09T15:47:07;19.58;;;11.93;;
10031;SDS011;5056;44.272;19.892;2023-10-09T15:49:37;10.95;;;9.65;;
10031;SDS011;5056;44.272;19.892;2023-10-09T15:52:09;11.80;;;8.63;;
10031;SDS011;5056;44.272;19.892;2023-10-09T15:54:42;15.07;;;9.45;;
10031;SDS011;5056;44.272;19.892;2023-10-09T15:57:11;10.90;;;9.27;;
10031;SDS011;5056;44.272;19.892;2023-10-09T15:59:39;10.32;;;9.32;;
10031;SDS011;5056;44.272;19.892;2023-10-09T16:02:06;11.40;;;9.35;;
10031;SDS011;5056;44.272;19.892;2023-10-09T16:07:25;10.43;;;7.97;;
10031;SDS011;5056;44.272;19.892;2023-10-09T16:09:55;9.02;;;7.15;;
10031;SDS011;5056;44.272;19.892;2023-10-09T16:12:24;8.18;;;7.05;;
10031;SDS011;5056;44.272;19.892;2023-10-09T16:14:52;10.23;;;6.82;;
10031;SDS011;5056;44.272;19.892;2023-10-09T16:17:20;9.93;;;7.35;;
10031;SDS011;5056;44.272;19.892;2023-10-09T16:19:51;8.52;;;7.63;;
10031;SDS011;5056;44.272;19.892;2023-10-09T16:22:18;9.80;;;8.45;;
10031;SDS011;5056;44.272;19.892;2023-10-09T16:24:48;11.98;;;10.38;;